Lake Ozark, MO (65049)

5:22 PM CDT on August 27, 2015 (GMT -0500)
Lake of the Ozarks | | Change Station
CLOSE
Current Station
Personal Weather Station
Location: Sunrise Beach, MO
Elevation: 668 ft
Nearby Weather Stations

Elev 668 ft 38.17 °N, 92.70 °W | Updated 48 seconds ago

Clear
Clear
78.3 °F
Feels Like 82 °F
N
4.2
Wind Variable Wind from ESE

Today
High -- | Low -- °F
--% Chance of Precip.
Yesterday
High -- | Low -- °F
Precip. -- in
6:35 AM 7:48 PM
Waxing Gibbous, 95% visible
Pressure 30.08 in
Visibility 10.0 miles
Clouds Clear
Heat Index 82 °F
Dew Point 78 °F
Humidity 99%
Rainfall 0.00 in
Snow Depth Not available.
UV 3 out of 12
Pollen 9.70 out of 12
Air Quality Not available.
Flu Activity Not available.
METAR KAIZ 272215Z AUTO 14004KT 10SM CLR 24/17 A3008 RMK AO1
Pressure 30.08 in
Visibility 10.0 miles
Clouds Clear
Heat Index 82 °F
Dew Point 78 °F
Humidity 99%
Rainfall 0.00 in
Snow Depth Not available.
UV 3 out of 12
Pollen 9.70 out of 12
Air Quality Not available.
Flu Activity Not available.
METAR KAIZ 272215Z AUTO 14004KT 10SM CLR 24/17 A3008 RMK AO1

10-Day Weather Forecast

×

Almanac

Astronomy

Aug. 27, 2015 Rise Set
Actual Time
Civil Twilight
Nautical Twilight
Astronomical Twilight
Moon
Length of Visible Light
Length of Day
Tomorrow will be .
, % of the Moon is Illuminated

Today's Extremes

State Highs State Lows

Community

WunderPhotos

Upload Photos

1,850,249 photos uploaded!

WunderBlogs® & News

Nearby

Air Quality

  Air Quality AQ Index Pollutant
Not available.

Snow Depth

Station Depth Elevation

Earthquake Activity

City Distance Mag. Time & Date
Minimum magnitude displayed is 2.5.

Coastal Water Temperatures

Place Temperature

Stations

Nearby Weather Stations

Station Location Temp. Windchill Dew Point Humidity Wind Precip. Elev Updated Type